createdAt,value
2023-06-01T00:05:03.310Z,11.00
2023-06-01T00:10:11.832Z,10.90
2023-06-01T00:15:19.262Z,11.00
2023-06-01T00:20:30.076Z,11.00
2023-06-01T00:25:40.498Z,10.90
2023-06-01T00:30:47.894Z,10.30
2023-06-01T00:35:55.761Z,10.60
2023-06-01T00:41:03.431Z,10.50
2023-06-01T00:46:11.376Z,10.60
2023-06-01T00:51:18.713Z,10.60
2023-06-01T00:56:27.643Z,10.50
2023-06-01T01:01:38.630Z,10.40
2023-06-01T01:07:22.144Z,10.20
2023-06-01T01:12:47.234Z,10.30
2023-06-01T01:17:58.608Z,10.30
2023-06-01T01:23:39.263Z,10.20
2023-06-01T01:28:56.889Z,10.00
2023-06-01T01:34:06.492Z,9.80
2023-06-01T01:39:13.788Z,9.70
2023-06-01T01:44:21.543Z,9.90
2023-06-01T01:49:42.306Z,9.80
2023-06-01T01:54:54.173Z,9.80
2023-06-01T02:00:02.038Z,9.40
2023-06-01T02:05:11.938Z,9.80
2023-06-01T02:10:19.246Z,9.40
2023-06-01T02:15:27.971Z,9.60
2023-06-01T02:20:36.403Z,9.70
2023-06-01T02:25:43.770Z,9.60
2023-06-01T02:30:49.678Z,9.30
2023-06-01T02:35:58.101Z,9.40
2023-06-01T02:41:05.008Z,9.40
2023-06-01T02:46:11.241Z,9.10
2023-06-01T02:51:20.653Z,9.50
2023-06-01T02:56:28.566Z,9.30
2023-06-01T03:01:37.382Z,9.40
2023-06-01T03:06:44.811Z,9.40
2023-06-01T03:11:52.322Z,9.30
2023-06-01T03:17:00.056Z,9.40
2023-06-01T03:22:07.140Z,9.40
2023-06-01T03:27:15.620Z,9.10
2023-06-01T03:32:22.454Z,9.30
2023-06-01T03:37:32.851Z,9.30
2023-06-01T03:42:50.457Z,9.40
2023-06-01T03:47:57.785Z,10.00
2023-06-01T03:53:04.464Z,10.10
2023-06-01T03:58:12.233Z,10.40
2023-06-01T04:03:21.752Z,10.70
2023-06-01T04:08:29.599Z,10.90
2023-06-01T04:13:36.474Z,11.20
2023-06-01T04:18:45.593Z,11.10
2023-06-01T04:23:53.310Z,11.50
2023-06-01T04:29:02.182Z,11.90
2023-06-01T04:34:11.571Z,12.00
2023-06-01T04:39:19.041Z,11.80
2023-06-01T04:44:27.623Z,12.50
2023-06-01T04:49:34.061Z,12.80
2023-06-01T04:54:41.851Z,13.10
2023-06-01T04:59:49.005Z,13.60
2023-06-01T05:04:56.420Z,13.90
2023-06-01T05:10:05.187Z,14.00
2023-06-01T05:15:13.072Z,14.40
2023-06-01T05:20:20.056Z,14.60
2023-06-01T05:25:29.089Z,15.10
2023-06-01T05:30:37.220Z,15.50
2023-06-01T05:35:44.166Z,15.90
2023-06-01T05:40:51.105Z,16.30
2023-06-01T05:45:57.919Z,16.60
2023-06-01T05:51:05.070Z,17.00
2023-06-01T05:56:13.805Z,17.30
2023-06-01T06:01:21.616Z,17.40
2023-06-01T06:06:29.375Z,18.00
2023-06-01T06:11:36.643Z,18.30
2023-06-01T06:16:45.560Z,18.60
2023-06-01T06:21:53.097Z,18.90
2023-06-01T06:27:02.164Z,19.00
2023-06-01T06:32:10.721Z,19.40
2023-06-01T06:37:17.988Z,19.70
2023-06-01T06:42:29.610Z,20.30
2023-06-01T06:47:36.661Z,20.50
2023-06-01T06:52:43.657Z,20.70
2023-06-01T06:57:50.770Z,20.60
2023-06-01T07:03:00.427Z,20.80
2023-06-01T07:08:07.562Z,20.90
2023-06-01T07:13:15.139Z,20.60
2023-06-01T07:18:23.113Z,20.60
2023-06-01T07:23:31.694Z,20.90
2023-06-01T07:28:39.310Z,21.30
2023-06-01T07:33:47.888Z,21.20
2023-06-01T07:38:55.202Z,21.50
2023-06-01T07:44:02.344Z,22.00
2023-06-01T07:49:11.473Z,22.20
2023-06-01T07:54:18.405Z,22.30
2023-06-01T07:59:26.251Z,22.50
2023-06-01T08:04:35.270Z,22.90
2023-06-01T08:09:44.158Z,22.70
2023-06-01T08:14:53.445Z,23.00
2023-06-01T08:20:00.251Z,23.10
2023-06-01T08:25:08.723Z,22.60
2023-06-01T08:30:15.897Z,23.30
2023-06-01T08:35:23.672Z,23.80
2023-06-01T08:40:31.995Z,24.00
2023-06-01T08:45:41.512Z,24.20
2023-06-01T08:50:52.374Z,24.00
2023-06-01T08:56:01.951Z,24.10
2023-06-01T09:01:09.599Z,24.20
2023-06-01T09:06:16.675Z,24.40
2023-06-01T09:11:25.323Z,24.50
2023-06-01T09:16:41.481Z,24.80
2023-06-01T09:22:01.847Z,24.90
2023-06-01T09:27:09.889Z,24.80
2023-06-01T09:32:22.765Z,25.10
2023-06-01T09:37:30.424Z,25.00
2023-06-01T09:42:38.604Z,25.30
2023-06-01T09:47:45.658Z,25.10
2023-06-01T09:53:03.334Z,25.20
2023-06-01T09:58:30.069Z,25.10
2023-06-01T10:03:38.049Z,25.20
2023-06-01T10:08:46.832Z,25.50
2023-06-01T10:13:54.272Z,25.70
2023-06-01T10:19:02.150Z,26.20
2023-06-01T10:24:11.164Z,26.30
2023-06-01T10:29:21.442Z,26.60
2023-06-01T10:34:47.250Z,26.80
2023-06-01T10:39:56.268Z,26.60
2023-06-01T10:45:05.160Z,26.80
2023-06-01T10:50:16.553Z,26.50
2023-06-01T10:55:27.556Z,26.50
2023-06-01T11:00:41.864Z,26.70
2023-06-01T11:05:53.771Z,26.60
2023-06-01T11:11:05.189Z,26.30
2023-06-01T11:16:26.209Z,26.30
2023-06-01T11:21:44.641Z,26.90
2023-06-01T11:26:53.695Z,27.20
2023-06-01T11:32:04.753Z,26.80
2023-06-01T11:37:21.165Z,26.90
2023-06-01T11:42:33.328Z,27.20
2023-06-01T11:47:40.861Z,26.90
2023-06-01T11:52:49.818Z,27.10
2023-06-01T11:57:59.572Z,26.90
2023-06-01T12:03:10.385Z,27.10
2023-06-01T12:08:22.193Z,26.40
2023-06-01T12:13:31.189Z,26.80
2023-06-01T12:18:38.157Z,27.10
2023-06-01T12:23:53.034Z,27.20
2023-06-01T12:29:01.473Z,27.30
2023-06-01T12:34:18.108Z,27.50
2023-06-01T12:39:38.456Z,26.90
2023-06-01T12:44:47.394Z,27.70
2023-06-01T12:50:12.791Z,27.40
2023-06-01T12:55:21.316Z,26.90
2023-06-01T13:00:39.446Z,27.00
2023-06-01T13:05:36.672Z,26.60
2023-06-01T13:10:44.817Z,26.90
2023-06-01T13:15:52.070Z,26.90
2023-06-01T13:20:59.532Z,26.70
2023-06-01T13:26:07.066Z,27.30
2023-06-01T13:31:14.831Z,27.10
2023-06-01T13:36:23.349Z,26.90
2023-06-01T13:41:32.119Z,26.80
2023-06-01T13:46:40.379Z,27.10
2023-06-01T13:51:47.961Z,26.70
2023-06-01T13:56:55.060Z,26.90
2023-06-01T14:02:02.063Z,26.70
2023-06-01T14:07:09.182Z,26.60
2023-06-01T14:12:16.706Z,26.70
2023-06-01T14:17:23.935Z,26.70
2023-06-01T14:22:30.446Z,26.40
2023-06-01T14:27:38.677Z,26.20
2023-06-01T14:32:46.650Z,26.30
2023-06-01T14:37:54.123Z,26.60
2023-06-01T14:43:02.341Z,26.00
2023-06-01T14:48:09.640Z,26.50
2023-06-01T14:53:17.335Z,25.90
2023-06-01T14:58:24.294Z,25.70
2023-06-01T15:03:31.225Z,25.90
2023-06-01T15:08:39.602Z,25.90
2023-06-01T15:13:46.202Z,25.80
2023-06-01T15:18:53.558Z,25.60
2023-06-01T15:24:00.959Z,25.60
2023-06-01T15:29:09.107Z,25.40
2023-06-01T15:34:16.847Z,25.50
2023-06-01T15:39:24.854Z,25.30
2023-06-01T15:44:31.868Z,25.40
2023-06-01T15:49:41.071Z,25.20
2023-06-01T15:54:48.996Z,25.00
2023-06-01T15:59:58.214Z,24.90
2023-06-01T16:05:05.500Z,25.00
2023-06-01T16:10:14.028Z,24.70
2023-06-01T16:15:21.306Z,24.60
2023-06-01T16:20:29.401Z,24.60
2023-06-01T16:25:36.453Z,24.40
2023-06-01T16:30:43.134Z,24.10
2023-06-01T16:35:50.142Z,23.90
2023-06-01T16:40:57.443Z,23.90
2023-06-01T16:46:04.849Z,23.90
2023-06-01T16:51:12.364Z,23.70
2023-06-01T16:56:19.639Z,23.50
2023-06-01T17:01:28.123Z,23.60
2023-06-01T17:06:35.668Z,23.60
2023-06-01T17:11:42.660Z,23.60
2023-06-01T17:16:50.925Z,23.30
2023-06-01T17:21:58.505Z,23.00
2023-06-01T17:27:06.981Z,22.60
2023-06-01T17:32:14.305Z,22.50
2023-06-01T17:37:22.406Z,22.20
2023-06-01T17:42:29.593Z,22.20
2023-06-01T17:47:36.880Z,22.00
2023-06-01T17:52:43.829Z,21.80
2023-06-01T17:57:53.730Z,21.90
2023-06-01T18:03:01.036Z,21.60
2023-06-01T18:08:08.690Z,21.40
2023-06-01T18:13:16.241Z,21.10
2023-06-01T18:18:23.355Z,21.10
2023-06-01T18:23:30.605Z,20.90
2023-06-01T18:28:38.342Z,20.70
2023-06-01T18:33:46.065Z,20.50
2023-06-01T18:38:53.641Z,20.30
2023-06-01T18:44:01.157Z,20.10
2023-06-01T18:49:09.069Z,19.50
2023-06-01T18:54:16.107Z,19.40
2023-06-01T18:59:23.775Z,18.90
2023-06-01T19:04:30.575Z,18.30
2023-06-01T19:09:44.266Z,17.90
2023-06-01T19:14:56.219Z,17.70
2023-06-01T19:20:05.308Z,17.60
2023-06-01T19:25:13.394Z,17.50
2023-06-01T19:30:22.859Z,17.00
2023-06-01T19:35:33.304Z,16.80
2023-06-01T19:40:48.983Z,16.60
2023-06-01T19:46:10.537Z,16.80
2023-06-01T19:51:20.898Z,16.50
2023-06-01T19:56:44.483Z,16.40
2023-06-01T20:01:54.477Z,15.90
2023-06-01T20:07:04.829Z,15.80
2023-06-01T20:12:16.332Z,15.40
2023-06-01T20:17:25.042Z,15.20
2023-06-01T20:22:33.432Z,14.50
2023-06-01T20:27:41.357Z,15.00
2023-06-01T20:32:50.180Z,14.70
2023-06-01T20:37:59.469Z,14.10
2023-06-01T20:43:08.773Z,13.90
2023-06-01T20:48:20.526Z,14.00
2023-06-01T20:53:29.674Z,14.00
2023-06-01T20:58:37.244Z,13.60
2023-06-01T21:03:44.040Z,13.40
2023-06-01T21:08:55.908Z,13.40
2023-06-01T21:14:03.190Z,13.40
2023-06-01T21:19:10.310Z,12.90
2023-06-01T21:24:29.354Z,13.20
2023-06-01T21:29:37.680Z,13.00
2023-06-01T21:34:44.503Z,13.10
2023-06-01T21:39:51.521Z,13.20
2023-06-01T21:45:01.722Z,13.20
2023-06-01T21:50:09.885Z,13.10
2023-06-01T21:55:18.089Z,12.70
2023-06-01T22:00:25.329Z,12.40
2023-06-01T22:05:34.273Z,12.30
2023-06-01T22:10:42.239Z,12.50
2023-06-01T22:15:49.214Z,12.20
2023-06-01T22:20:56.604Z,11.80
2023-06-01T22:26:04.733Z,12.10
2023-06-01T22:31:12.790Z,11.90
2023-06-01T22:36:19.252Z,11.70
2023-06-01T22:41:26.871Z,11.60
2023-06-01T22:46:34.071Z,11.40
2023-06-01T22:51:43.112Z,11.60
2023-06-01T22:56:50.487Z,11.30
2023-06-01T23:01:58.220Z,11.20
2023-06-01T23:07:09.740Z,11.20
2023-06-01T23:12:21.323Z,11.30
2023-06-01T23:17:29.969Z,11.00
2023-06-01T23:22:38.624Z,11.10
2023-06-01T23:27:46.398Z,11.00
2023-06-01T23:32:54.894Z,11.00
2023-06-01T23:38:02.295Z,11.10
2023-06-01T23:43:09.651Z,11.20
2023-06-01T23:48:17.413Z,10.40
2023-06-01T23:53:27.886Z,10.90
2023-06-01T23:58:35.858Z,10.80
